sensor_id;sensor_type;location;lat;lon;timestamp;P1;durP1;ratioP1;P2;durP2;ratioP2
769;SDS011;368;48.698;9.116;2022-11-14T00:00:24;17.33;;;15.43;;
769;SDS011;368;48.698;9.116;2022-11-14T00:02:52;16.47;;;14.43;;
769;SDS011;368;48.698;9.116;2022-11-14T00:05:19;15.20;;;13.40;;
769;SDS011;368;48.698;9.116;2022-11-14T00:07:46;15.70;;;12.93;;
769;SDS011;368;48.698;9.116;2022-11-14T00:10:15;13.77;;;11.60;;
769;SDS011;368;48.698;9.116;2022-11-14T00:12:42;14.77;;;11.30;;
769;SDS011;368;48.698;9.116;2022-11-14T00:15:09;14.20;;;12.57;;
769;SDS011;368;48.698;9.116;2022-11-14T00:17:36;16.20;;;12.83;;
769;SDS011;368;48.698;9.116;2022-11-14T00:20:04;15.67;;;13.67;;
769;SDS011;368;48.698;9.116;2022-11-14T00:22:32;15.33;;;13.57;;
769;SDS011;368;48.698;9.116;2022-11-14T00:24:58;19.53;;;15.23;;
769;SDS011;368;48.698;9.116;2022-11-14T00:27:27;16.63;;;13.20;;
769;SDS011;368;48.698;9.116;2022-11-14T00:29:53;14.80;;;13.20;;
769;SDS011;368;48.698;9.116;2022-11-14T00:32:20;15.30;;;12.70;;
769;SDS011;368;48.698;9.116;2022-11-14T00:34:47;12.90;;;11.60;;
769;SDS011;368;48.698;9.116;2022-11-14T00:37:14;13.10;;;11.73;;
769;SDS011;368;48.698;9.116;2022-11-14T00:39:41;13.80;;;12.17;;
769;SDS011;368;48.698;9.116;2022-11-14T00:42:08;16.03;;;12.20;;
769;SDS011;368;48.698;9.116;2022-11-14T00:44:36;13.93;;;11.87;;
769;SDS011;368;48.698;9.116;2022-11-14T00:47:03;17.00;;;12.20;;
769;SDS011;368;48.698;9.116;2022-11-14T00:49:29;16.47;;;11.90;;
769;SDS011;368;48.698;9.116;2022-11-14T00:51:56;15.97;;;12.43;;
769;SDS011;368;48.698;9.116;2022-11-14T00:54:23;13.50;;;10.90;;
769;SDS011;368;48.698;9.116;2022-11-14T00:56:50;15.43;;;13.07;;
769;SDS011;368;48.698;9.116;2022-11-14T00:59:17;14.70;;;11.57;;
769;SDS011;368;48.698;9.116;2022-11-14T01:01:45;13.97;;;11.33;;
769;SDS011;368;48.698;9.116;2022-11-14T01:04:12;14.50;;;11.97;;
769;SDS011;368;48.698;9.116;2022-11-14T01:06:39;11.90;;;10.63;;
769;SDS011;368;48.698;9.116;2022-11-14T01:09:06;15.90;;;12.55;;
769;SDS011;368;48.698;9.116;2022-11-14T01:11:32;14.47;;;10.97;;
769;SDS011;368;48.698;9.116;2022-11-14T01:13:59;13.93;;;12.40;;
769;SDS011;368;48.698;9.116;2022-11-14T01:16:26;14.70;;;12.30;;
769;SDS011;368;48.698;9.116;2022-11-14T01:18:54;15.93;;;13.17;;
769;SDS011;368;48.698;9.116;2022-11-14T01:21:21;15.73;;;12.88;;
769;SDS011;368;48.698;9.116;2022-11-14T01:23:48;16.07;;;12.73;;
769;SDS011;368;48.698;9.116;2022-11-14T01:26:14;17.13;;;13.40;;
769;SDS011;368;48.698;9.116;2022-11-14T01:28:41;18.73;;;14.57;;
769;SDS011;368;48.698;9.116;2022-11-14T01:31:09;20.00;;;14.30;;
769;SDS011;368;48.698;9.116;2022-11-14T01:33:38;27.10;;;16.50;;
769;SDS011;368;48.698;9.116;2022-11-14T01:36:06;35.80;;;17.13;;
769;SDS011;368;48.698;9.116;2022-11-14T01:38:34;45.90;;;17.43;;
769;SDS011;368;48.698;9.116;2022-11-14T01:41:02;39.77;;;17.67;;
769;SDS011;368;48.698;9.116;2022-11-14T01:43:30;28.30;;;16.17;;
769;SDS011;368;48.698;9.116;2022-11-14T01:46:00;24.20;;;15.17;;
769;SDS011;368;48.698;9.116;2022-11-14T01:48:30;35.23;;;17.03;;
769;SDS011;368;48.698;9.116;2022-11-14T01:51:04;38.63;;;17.20;;
769;SDS011;368;48.698;9.116;2022-11-14T01:53:46;29.07;;;15.20;;
769;SDS011;368;48.698;9.116;2022-11-14T01:56:16;34.97;;;17.73;;
769;SDS011;368;48.698;9.116;2022-11-14T01:58:48;23.23;;;16.23;;
769;SDS011;368;48.698;9.116;2022-11-14T02:01:17;31.80;;;15.97;;
769;SDS011;368;48.698;9.116;2022-11-14T02:03:44;35.40;;;16.97;;
769;SDS011;368;48.698;9.116;2022-11-14T02:06:15;64.30;;;17.97;;
769;SDS011;368;48.698;9.116;2022-11-14T02:08:46;39.73;;;17.03;;
769;SDS011;368;48.698;9.116;2022-11-14T02:11:13;34.73;;;15.77;;
769;SDS011;368;48.698;9.116;2022-11-14T02:13:40;39.87;;;16.40;;
769;SDS011;368;48.698;9.116;2022-11-14T02:16:07;69.50;;;17.90;;
769;SDS011;368;48.698;9.116;2022-11-14T02:18:34;96.00;;;21.10;;
769;SDS011;368;48.698;9.116;2022-11-14T02:21:02;51.83;;;18.00;;
769;SDS011;368;48.698;9.116;2022-11-14T02:23:30;148.30;;;23.70;;
769;SDS011;368;48.698;9.116;2022-11-14T02:25:58;70.03;;;21.03;;
769;SDS011;368;48.698;9.116;2022-11-14T02:28:25;117.33;;;22.13;;
769;SDS011;368;48.698;9.116;2022-11-14T02:30:52;120.70;;;23.73;;
769;SDS011;368;48.698;9.116;2022-11-14T02:33:20;161.77;;;25.43;;
769;SDS011;368;48.698;9.116;2022-11-14T02:35:46;107.50;;;21.60;;
769;SDS011;368;48.698;9.116;2022-11-14T02:38:15;124.83;;;26.80;;
769;SDS011;368;48.698;9.116;2022-11-14T02:40:42;48.93;;;16.20;;
769;SDS011;368;48.698;9.116;2022-11-14T02:43:08;123.77;;;23.53;;
769;SDS011;368;48.698;9.116;2022-11-14T02:45:35;61.67;;;18.50;;
769;SDS011;368;48.698;9.116;2022-11-14T02:48:02;119.57;;;22.83;;
769;SDS011;368;48.698;9.116;2022-11-14T02:50:29;137.53;;;25.63;;
769;SDS011;368;48.698;9.116;2022-11-14T02:52:57;225.70;;;48.93;;
769;SDS011;368;48.698;9.116;2022-11-14T02:55:25;124.63;;;32.57;;
769;SDS011;368;48.698;9.116;2022-11-14T02:57:52;384.93;;;126.23;;
769;SDS011;368;48.698;9.116;2022-11-14T03:00:19;107.10;;;33.20;;
769;SDS011;368;48.698;9.116;2022-11-14T03:02:45;153.53;;;46.70;;
769;SDS011;368;48.698;9.116;2022-11-14T03:05:12;140.03;;;60.57;;
769;SDS011;368;48.698;9.116;2022-11-14T03:07:39;54.30;;;17.83;;
769;SDS011;368;48.698;9.116;2022-11-14T03:10:06;50.00;;;15.50;;
769;SDS011;368;48.698;9.116;2022-11-14T03:12:35;50.40;;;17.60;;
769;SDS011;368;48.698;9.116;2022-11-14T03:15:02;19.80;;;11.93;;
769;SDS011;368;48.698;9.116;2022-11-14T03:17:30;24.60;;;13.10;;
769;SDS011;368;48.698;9.116;2022-11-14T03:19:57;26.07;;;11.80;;
769;SDS011;368;48.698;9.116;2022-11-14T03:22:24;40.77;;;25.50;;
769;SDS011;368;48.698;9.116;2022-11-14T03:24:51;25.03;;;14.00;;
769;SDS011;368;48.698;9.116;2022-11-14T03:27:18;19.80;;;11.63;;
769;SDS011;368;48.698;9.116;2022-11-14T03:29:46;15.57;;;11.07;;
769;SDS011;368;48.698;9.116;2022-11-14T03:32:13;14.97;;;10.80;;
769;SDS011;368;48.698;9.116;2022-11-14T03:34:40;22.70;;;11.13;;
769;SDS011;368;48.698;9.116;2022-11-14T03:37:07;37.10;;;13.07;;
769;SDS011;368;48.698;9.116;2022-11-14T03:39:33;32.23;;;11.50;;
769;SDS011;368;48.698;9.116;2022-11-14T03:42:00;28.90;;;11.50;;
769;SDS011;368;48.698;9.116;2022-11-14T03:44:27;22.00;;;11.57;;
769;SDS011;368;48.698;9.116;2022-11-14T03:46:55;17.93;;;10.60;;
769;SDS011;368;48.698;9.116;2022-11-14T03:49:22;22.03;;;10.90;;
769;SDS011;368;48.698;9.116;2022-11-14T03:51:48;47.30;;;23.30;;
769;SDS011;368;48.698;9.116;2022-11-14T03:54:15;18.50;;;11.67;;
769;SDS011;368;48.698;9.116;2022-11-14T03:56:42;24.07;;;14.00;;
769;SDS011;368;48.698;9.116;2022-11-14T03:59:09;17.77;;;12.90;;
769;SDS011;368;48.698;9.116;2022-11-14T04:01:36;18.83;;;11.60;;
769;SDS011;368;48.698;9.116;2022-11-14T04:04:04;25.73;;;12.77;;
769;SDS011;368;48.698;9.116;2022-11-14T04:06:31;14.60;;;10.90;;
769;SDS011;368;48.698;9.116;2022-11-14T04:08:57;14.57;;;10.90;;
769;SDS011;368;48.698;9.116;2022-11-14T04:11:25;17.67;;;12.03;;
769;SDS011;368;48.698;9.116;2022-11-14T04:13:52;14.17;;;11.40;;
769;SDS011;368;48.698;9.116;2022-11-14T04:16:18;18.43;;;12.23;;
769;SDS011;368;48.698;9.116;2022-11-14T04:18:45;17.20;;;10.70;;
769;SDS011;368;48.698;9.116;2022-11-14T04:21:13;15.43;;;10.90;;
769;SDS011;368;48.698;9.116;2022-11-14T04:23:40;13.00;;;11.30;;
769;SDS011;368;48.698;9.116;2022-11-14T04:26:07;15.10;;;11.53;;
769;SDS011;368;48.698;9.116;2022-11-14T04:28:34;14.70;;;10.70;;
769;SDS011;368;48.698;9.116;2022-11-14T04:31:00;13.83;;;12.10;;
769;SDS011;368;48.698;9.116;2022-11-14T04:33:27;15.53;;;12.37;;
769;SDS011;368;48.698;9.116;2022-11-14T04:35:54;17.97;;;14.47;;
769;SDS011;368;48.698;9.116;2022-11-14T04:38:22;12.90;;;10.50;;
769;SDS011;368;48.698;9.116;2022-11-14T04:40:49;16.53;;;12.17;;
769;SDS011;368;48.698;9.116;2022-11-14T04:43:17;14.83;;;10.83;;
769;SDS011;368;48.698;9.116;2022-11-14T04:45:45;10.93;;;9.20;;
769;SDS011;368;48.698;9.116;2022-11-14T04:48:12;11.63;;;9.77;;
769;SDS011;368;48.698;9.116;2022-11-14T04:50:39;12.20;;;9.67;;
769;SDS011;368;48.698;9.116;2022-11-14T04:53:06;9.77;;;8.77;;
769;SDS011;368;48.698;9.116;2022-11-14T04:55:34;11.20;;;9.73;;
769;SDS011;368;48.698;9.116;2022-11-14T04:58:01;11.60;;;10.17;;
769;SDS011;368;48.698;9.116;2022-11-14T05:00:28;12.60;;;9.70;;
769;SDS011;368;48.698;9.116;2022-11-14T05:02:57;13.20;;;10.23;;
769;SDS011;368;48.698;9.116;2022-11-14T05:05:24;11.20;;;10.10;;
769;SDS011;368;48.698;9.116;2022-11-14T05:07:50;11.70;;;9.93;;
769;SDS011;368;48.698;9.116;2022-11-14T05:10:19;11.17;;;9.40;;
769;SDS011;368;48.698;9.116;2022-11-14T05:12:47;15.17;;;10.93;;
769;SDS011;368;48.698;9.116;2022-11-14T05:15:14;10.93;;;9.10;;
769;SDS011;368;48.698;9.116;2022-11-14T05:17:40;13.27;;;10.77;;
769;SDS011;368;48.698;9.116;2022-11-14T05:20:08;12.43;;;10.50;;
769;SDS011;368;48.698;9.116;2022-11-14T05:22:35;13.80;;;10.40;;
769;SDS011;368;48.698;9.116;2022-11-14T05:25:02;12.10;;;10.30;;
769;SDS011;368;48.698;9.116;2022-11-14T05:27:29;13.93;;;11.17;;
769;SDS011;368;48.698;9.116;2022-11-14T05:29:58;13.33;;;11.00;;
769;SDS011;368;48.698;9.116;2022-11-14T05:32:24;11.20;;;10.00;;
769;SDS011;368;48.698;9.116;2022-11-14T05:34:51;10.87;;;9.00;;
769;SDS011;368;48.698;9.116;2022-11-14T05:37:18;13.40;;;10.47;;
769;SDS011;368;48.698;9.116;2022-11-14T05:39:45;12.73;;;9.90;;
769;SDS011;368;48.698;9.116;2022-11-14T05:42:11;12.77;;;10.23;;
769;SDS011;368;48.698;9.116;2022-11-14T05:44:38;10.27;;;9.17;;
769;SDS011;368;48.698;9.116;2022-11-14T05:47:06;10.63;;;9.50;;
769;SDS011;368;48.698;9.116;2022-11-14T05:49:33;11.27;;;9.73;;
769;SDS011;368;48.698;9.116;2022-11-14T05:52:00;10.43;;;9.40;;
769;SDS011;368;48.698;9.116;2022-11-14T05:54:27;10.03;;;8.83;;
769;SDS011;368;48.698;9.116;2022-11-14T05:56:53;11.03;;;9.10;;
769;SDS011;368;48.698;9.116;2022-11-14T05:59:20;9.80;;;8.77;;
769;SDS011;368;48.698;9.116;2022-11-14T06:01:47;12.23;;;10.47;;
769;SDS011;368;48.698;9.116;2022-11-14T06:04:15;11.60;;;9.33;;
769;SDS011;368;48.698;9.116;2022-11-14T06:06:42;11.10;;;9.40;;
769;SDS011;368;48.698;9.116;2022-11-14T06:09:09;12.70;;;11.30;;
769;SDS011;368;48.698;9.116;2022-11-14T06:11:35;15.77;;;14.17;;
769;SDS011;368;48.698;9.116;2022-11-14T06:14:02;11.07;;;9.77;;
769;SDS011;368;48.698;9.116;2022-11-14T06:16:29;10.33;;;9.13;;
769;SDS011;368;48.698;9.116;2022-11-14T06:18:56;11.80;;;9.33;;
769;SDS011;368;48.698;9.116;2022-11-14T06:21:24;11.63;;;9.70;;
769;SDS011;368;48.698;9.116;2022-11-14T06:23:51;12.37;;;10.97;;
769;SDS011;368;48.698;9.116;2022-11-14T06:26:20;11.53;;;9.80;;
769;SDS011;368;48.698;9.116;2022-11-14T06:28:48;10.70;;;9.13;;
769;SDS011;368;48.698;9.116;2022-11-14T06:31:16;10.30;;;9.20;;
769;SDS011;368;48.698;9.116;2022-11-14T06:33:43;11.80;;;9.67;;
769;SDS011;368;48.698;9.116;2022-11-14T06:36:10;15.23;;;12.57;;
769;SDS011;368;48.698;9.116;2022-11-14T06:38:39;13.43;;;12.00;;
769;SDS011;368;48.698;9.116;2022-11-14T06:41:08;12.70;;;9.73;;
769;SDS011;368;48.698;9.116;2022-11-14T06:43:36;11.80;;;9.60;;
769;SDS011;368;48.698;9.116;2022-11-14T06:46:05;11.90;;;10.20;;
769;SDS011;368;48.698;9.116;2022-11-14T06:48:32;12.53;;;10.03;;
769;SDS011;368;48.698;9.116;2022-11-14T06:51:00;11.93;;;10.10;;
769;SDS011;368;48.698;9.116;2022-11-14T06:53:28;11.60;;;10.00;;
769;SDS011;368;48.698;9.116;2022-11-14T06:55:57;12.47;;;10.07;;
769;SDS011;368;48.698;9.116;2022-11-14T06:58:25;11.40;;;10.20;;
769;SDS011;368;48.698;9.116;2022-11-14T07:00:53;12.70;;;10.60;;
769;SDS011;368;48.698;9.116;2022-11-14T07:03:20;13.03;;;10.50;;
769;SDS011;368;48.698;9.116;2022-11-14T07:05:48;11.80;;;10.60;;
769;SDS011;368;48.698;9.116;2022-11-14T07:08:15;10.60;;;8.80;;
769;SDS011;368;48.698;9.116;2022-11-14T07:10:41;12.07;;;10.40;;
769;SDS011;368;48.698;9.116;2022-11-14T07:13:10;13.43;;;10.50;;
769;SDS011;368;48.698;9.116;2022-11-14T07:15:36;11.33;;;10.13;;
769;SDS011;368;48.698;9.116;2022-11-14T07:18:03;13.07;;;10.50;;
769;SDS011;368;48.698;9.116;2022-11-14T07:20:30;12.33;;;10.67;;
769;SDS011;368;48.698;9.116;2022-11-14T07:22:57;12.47;;;9.80;;
769;SDS011;368;48.698;9.116;2022-11-14T07:25:24;10.87;;;8.93;;
769;SDS011;368;48.698;9.116;2022-11-14T07:27:51;11.40;;;10.17;;
769;SDS011;368;48.698;9.116;2022-11-14T07:30:19;10.27;;;9.17;;
769;SDS011;368;48.698;9.116;2022-11-14T07:32:46;11.13;;;9.97;;
769;SDS011;368;48.698;9.116;2022-11-14T07:35:20;12.17;;;10.10;;
769;SDS011;368;48.698;9.116;2022-11-14T07:37:47;14.70;;;11.20;;
769;SDS011;368;48.698;9.116;2022-11-14T07:40:14;14.67;;;11.27;;
769;SDS011;368;48.698;9.116;2022-11-14T07:42:41;13.40;;;10.93;;
769;SDS011;368;48.698;9.116;2022-11-14T07:45:09;16.43;;;12.73;;
769;SDS011;368;48.698;9.116;2022-11-14T07:47:38;16.50;;;13.60;;
769;SDS011;368;48.698;9.116;2022-11-14T07:50:05;18.37;;;13.83;;
769;SDS011;368;48.698;9.116;2022-11-14T07:52:32;20.23;;;13.47;;
769;SDS011;368;48.698;9.116;2022-11-14T07:54:59;17.00;;;13.30;;
769;SDS011;368;48.698;9.116;2022-11-14T07:57:26;15.70;;;12.90;;
769;SDS011;368;48.698;9.116;2022-11-14T07:59:53;18.60;;;13.40;;
769;SDS011;368;48.698;9.116;2022-11-14T08:02:20;15.30;;;13.50;;
769;SDS011;368;48.698;9.116;2022-11-14T08:04:48;16.80;;;12.80;;
769;SDS011;368;48.698;9.116;2022-11-14T08:07:15;15.90;;;11.97;;
769;SDS011;368;48.698;9.116;2022-11-14T08:09:42;18.00;;;13.10;;
769;SDS011;368;48.698;9.116;2022-11-14T08:12:08;16.50;;;12.20;;
769;SDS011;368;48.698;9.116;2022-11-14T08:14:35;13.97;;;11.40;;
769;SDS011;368;48.698;9.116;2022-11-14T08:17:02;12.20;;;9.30;;
769;SDS011;368;48.698;9.116;2022-11-14T08:19:29;10.27;;;7.77;;
769;SDS011;368;48.698;9.116;2022-11-14T08:21:57;9.60;;;7.90;;
769;SDS011;368;48.698;9.116;2022-11-14T08:24:24;9.27;;;7.37;;
769;SDS011;368;48.698;9.116;2022-11-14T08:26:51;9.10;;;7.30;;
769;SDS011;368;48.698;9.116;2022-11-14T08:29:18;9.23;;;7.40;;
769;SDS011;368;48.698;9.116;2022-11-14T08:31:45;7.33;;;6.27;;
769;SDS011;368;48.698;9.116;2022-11-14T08:34:12;7.23;;;5.70;;
769;SDS011;368;48.698;9.116;2022-11-14T08:36:38;6.83;;;5.80;;
769;SDS011;368;48.698;9.116;2022-11-14T08:39:07;7.97;;;7.17;;
769;SDS011;368;48.698;9.116;2022-11-14T08:41:33;5.63;;;5.10;;
769;SDS011;368;48.698;9.116;2022-11-14T08:44:00;5.67;;;5.10;;
769;SDS011;368;48.698;9.116;2022-11-14T08:46:27;6.30;;;5.70;;
769;SDS011;368;48.698;9.116;2022-11-14T08:48:54;4.47;;;4.07;;
769;SDS011;368;48.698;9.116;2022-11-14T08:51:21;5.90;;;5.40;;
769;SDS011;368;48.698;9.116;2022-11-14T08:53:48;5.90;;;5.40;;
769;SDS011;368;48.698;9.116;2022-11-14T08:56:17;6.33;;;5.70;;
769;SDS011;368;48.698;9.116;2022-11-14T08:58:44;6.03;;;5.47;;
769;SDS011;368;48.698;9.116;2022-11-14T09:01:11;5.67;;;5.17;;
769;SDS011;368;48.698;9.116;2022-11-14T09:03:38;5.30;;;4.80;;
769;SDS011;368;48.698;9.116;2022-11-14T09:06:05;5.03;;;4.50;;
769;SDS011;368;48.698;9.116;2022-11-14T09:08:32;4.10;;;3.80;;
769;SDS011;368;48.698;9.116;2022-11-14T09:10:59;4.30;;;3.00;;
769;SDS011;368;48.698;9.116;2022-11-14T09:13:27;4.00;;;3.60;;
769;SDS011;368;48.698;9.116;2022-11-14T09:15:56;3.50;;;3.10;;
769;SDS011;368;48.698;9.116;2022-11-14T09:18:23;3.83;;;3.07;;
769;SDS011;368;48.698;9.116;2022-11-14T09:20:50;5.60;;;5.10;;
769;SDS011;368;48.698;9.116;2022-11-14T09:23:17;5.67;;;3.80;;
769;SDS011;368;48.698;9.116;2022-11-14T09:25:44;4.80;;;4.30;;
769;SDS011;368;48.698;9.116;2022-11-14T09:28:11;3.67;;;3.30;;
769;SDS011;368;48.698;9.116;2022-11-14T09:30:39;3.97;;;3.57;;
769;SDS011;368;48.698;9.116;2022-11-14T09:33:06;3.47;;;3.03;;
769;SDS011;368;48.698;9.116;2022-11-14T09:35:33;3.70;;;3.40;;
769;SDS011;368;48.698;9.116;2022-11-14T09:38:02;2.93;;;2.73;;
769;SDS011;368;48.698;9.116;2022-11-14T09:40:30;3.03;;;2.73;;
769;SDS011;368;48.698;9.116;2022-11-14T09:43:17;3.40;;;3.10;;
769;SDS011;368;48.698;9.116;2022-11-14T09:45:57;2.87;;;2.57;;
769;SDS011;368;48.698;9.116;2022-11-14T09:48:25;3.07;;;2.77;;
769;SDS011;368;48.698;9.116;2022-11-14T09:51:05;3.77;;;3.37;;
769;SDS011;368;48.698;9.116;2022-11-14T09:53:35;3.87;;;3.57;;
769;SDS011;368;48.698;9.116;2022-11-14T09:56:08;3.83;;;3.47;;
769;SDS011;368;48.698;9.116;2022-11-14T09:58:38;2.80;;;2.60;;
769;SDS011;368;48.698;9.116;2022-11-14T10:01:09;3.90;;;2.90;;
769;SDS011;368;48.698;9.116;2022-11-14T10:03:45;3.30;;;2.60;;
769;SDS011;368;48.698;9.116;2022-11-14T10:06:20;6.00;;;3.77;;
769;SDS011;368;48.698;9.116;2022-11-14T10:09:02;6.70;;;3.93;;
769;SDS011;368;48.698;9.116;2022-11-14T10:11:46;4.97;;;3.10;;
769;SDS011;368;48.698;9.116;2022-11-14T10:14:21;3.97;;;3.57;;
769;SDS011;368;48.698;9.116;2022-11-14T10:17:10;4.93;;;3.10;;
769;SDS011;368;48.698;9.116;2022-11-14T10:19:48;5.23;;;3.40;;
769;SDS011;368;48.698;9.116;2022-11-14T10:22:26;3.13;;;2.73;;
769;SDS011;368;48.698;9.116;2022-11-14T10:25:18;2.03;;;1.90;;
769;SDS011;368;48.698;9.116;2022-11-14T10:27:53;8.70;;;4.30;;
769;SDS011;368;48.698;9.116;2022-11-14T10:30:29;7.10;;;3.93;;
769;SDS011;368;48.698;9.116;2022-11-14T10:33:11;6.17;;;3.53;;
769;SDS011;368;48.698;9.116;2022-11-14T10:35:47;4.20;;;3.27;;
769;SDS011;368;48.698;9.116;2022-11-14T10:38:19;3.33;;;3.03;;
769;SDS011;368;48.698;9.116;2022-11-14T10:40:51;5.93;;;2.60;;
769;SDS011;368;48.698;9.116;2022-11-14T10:43:22;4.53;;;3.27;;
769;SDS011;368;48.698;9.116;2022-11-14T10:45:53;2.70;;;2.20;;
769;SDS011;368;48.698;9.116;2022-11-14T10:48:29;2.80;;;2.60;;
769;SDS011;368;48.698;9.116;2022-11-14T10:50:58;3.43;;;2.17;;
769;SDS011;368;48.698;9.116;2022-11-14T10:53:34;2.90;;;2.13;;
769;SDS011;368;48.698;9.116;2022-11-14T10:56:09;2.20;;;2.00;;
769;SDS011;368;48.698;9.116;2022-11-14T10:58:38;3.30;;;2.20;;
769;SDS011;368;48.698;9.116;2022-11-14T11:04:12;1.50;;;1.40;;
769;SDS011;368;48.698;9.116;2022-11-14T11:06:47;1.60;;;1.50;;
769;SDS011;368;48.698;9.116;2022-11-14T11:09:16;2.10;;;1.90;;
769;SDS011;368;48.698;9.116;2022-11-14T11:12:02;1.53;;;1.27;;
769;SDS011;368;48.698;9.116;2022-11-14T11:14:30;2.00;;;1.60;;
769;SDS011;368;48.698;9.116;2022-11-14T11:17:17;1.77;;;1.67;;
769;SDS011;368;48.698;9.116;2022-11-14T11:19:47;1.57;;;1.40;;
769;SDS011;368;48.698;9.116;2022-11-14T11:22:28;1.90;;;1.73;;
769;SDS011;368;48.698;9.116;2022-11-14T11:25:00;1.77;;;1.40;;
769;SDS011;368;48.698;9.116;2022-11-14T11:27:27;1.80;;;1.53;;
769;SDS011;368;48.698;9.116;2022-11-14T11:30:06;2.10;;;1.70;;
769;SDS011;368;48.698;9.116;2022-11-14T11:32:42;1.73;;;1.50;;
769;SDS011;368;48.698;9.116;2022-11-14T11:35:11;3.23;;;2.93;;
769;SDS011;368;48.698;9.116;2022-11-14T11:37:43;1.90;;;1.50;;
769;SDS011;368;48.698;9.116;2022-11-14T11:40:13;2.00;;;1.40;;
769;SDS011;368;48.698;9.116;2022-11-14T11:42:44;2.80;;;1.67;;
769;SDS011;368;48.698;9.116;2022-11-14T11:45:16;3.27;;;2.53;;
769;SDS011;368;48.698;9.116;2022-11-14T11:47:45;2.07;;;1.53;;
769;SDS011;368;48.698;9.116;2022-11-14T11:50:19;1.90;;;1.40;;
769;SDS011;368;48.698;9.116;2022-11-14T11:52:49;2.40;;;1.80;;
769;SDS011;368;48.698;9.116;2022-11-14T11:55:24;1.90;;;1.80;;
769;SDS011;368;48.698;9.116;2022-11-14T11:57:55;5.10;;;2.03;;
769;SDS011;368;48.698;9.116;2022-11-14T12:00:28;1.87;;;1.77;;
769;SDS011;368;48.698;9.116;2022-11-14T12:02:55;1.80;;;1.70;;
769;SDS011;368;48.698;9.116;2022-11-14T12:05:27;6.40;;;2.43;;
769;SDS011;368;48.698;9.116;2022-11-14T12:08:03;2.60;;;2.40;;
769;SDS011;368;48.698;9.116;2022-11-14T12:10:35;2.83;;;2.63;;
769;SDS011;368;48.698;9.116;2022-11-14T12:13:09;4.03;;;3.03;;
769;SDS011;368;48.698;9.116;2022-11-14T12:16:10;3.03;;;2.47;;
769;SDS011;368;48.698;9.116;2022-11-14T12:18:50;4.43;;;3.70;;
769;SDS011;368;48.698;9.116;2022-11-14T12:21:40;4.47;;;3.33;;
769;SDS011;368;48.698;9.116;2022-11-14T12:24:26;3.20;;;2.90;;
769;SDS011;368;48.698;9.116;2022-11-14T12:27:14;4.47;;;2.40;;
769;SDS011;368;48.698;9.116;2022-11-14T12:29:54;2.30;;;1.50;;
769;SDS011;368;48.698;9.116;2022-11-14T12:32:35;3.40;;;2.50;;
769;SDS011;368;48.698;9.116;2022-11-14T12:35:06;2.53;;;2.17;;
769;SDS011;368;48.698;9.116;2022-11-14T12:37:43;1.90;;;1.30;;
769;SDS011;368;48.698;9.116;2022-11-14T12:40:17;2.07;;;1.00;;
769;SDS011;368;48.698;9.116;2022-11-14T12:42:53;2.53;;;1.70;;
769;SDS011;368;48.698;9.116;2022-11-14T12:48:28;1.63;;;1.53;;
769;SDS011;368;48.698;9.116;2022-11-14T12:51:00;2.53;;;1.40;;
769;SDS011;368;48.698;9.116;2022-11-14T12:53:41;1.47;;;1.37;;
769;SDS011;368;48.698;9.116;2022-11-14T12:56:19;2.37;;;2.00;;
769;SDS011;368;48.698;9.116;2022-11-14T12:59:15;1.97;;;1.40;;
769;SDS011;368;48.698;9.116;2022-11-14T13:01:55;2.00;;;1.60;;
769;SDS011;368;48.698;9.116;2022-11-14T13:04:45;3.50;;;1.63;;
769;SDS011;368;48.698;9.116;2022-11-14T13:07:27;1.53;;;1.13;;
769;SDS011;368;48.698;9.116;2022-11-14T13:10:02;1.80;;;1.40;;
769;SDS011;368;48.698;9.116;2022-11-14T13:12:38;1.50;;;1.40;;
769;SDS011;368;48.698;9.116;2022-11-14T13:15:25;1.47;;;1.27;;
769;SDS011;368;48.698;9.116;2022-11-14T13:18:15;2.73;;;1.60;;
769;SDS011;368;48.698;9.116;2022-11-14T13:21:15;2.33;;;1.70;;
769;SDS011;368;48.698;9.116;2022-11-14T13:24:01;2.53;;;1.70;;
769;SDS011;368;48.698;9.116;2022-11-14T13:26:43;2.23;;;1.93;;
769;SDS011;368;48.698;9.116;2022-11-14T13:38:18;2.30;;;1.87;;
769;SDS011;368;48.698;9.116;2022-11-14T13:41:04;2.30;;;2.10;;
769;SDS011;368;48.698;9.116;2022-11-14T13:43:50;1.90;;;1.63;;
769;SDS011;368;48.698;9.116;2022-11-14T13:46:29;1.63;;;1.50;;
769;SDS011;368;48.698;9.116;2022-11-14T13:49:10;2.20;;;2.00;;
769;SDS011;368;48.698;9.116;2022-11-14T13:51:47;2.20;;;2.00;;
769;SDS011;368;48.698;9.116;2022-11-14T13:54:17;1.67;;;1.57;;
769;SDS011;368;48.698;9.116;2022-11-14T13:56:48;2.03;;;1.30;;
769;SDS011;368;48.698;9.116;2022-11-14T14:02:24;4.63;;;1.40;;
769;SDS011;368;48.698;9.116;2022-11-14T14:05:30;1.70;;;1.60;;
769;SDS011;368;48.698;9.116;2022-11-14T14:11:18;2.43;;;1.50;;
769;SDS011;368;48.698;9.116;2022-11-14T14:13:58;3.00;;;1.97;;
769;SDS011;368;48.698;9.116;2022-11-14T14:16:38;2.83;;;2.53;;
769;SDS011;368;48.698;9.116;2022-11-14T14:19:14;2.30;;;2.10;;
769;SDS011;368;48.698;9.116;2022-11-14T14:21:48;3.47;;;2.90;;
769;SDS011;368;48.698;9.116;2022-11-14T14:24:27;3.53;;;1.97;;
769;SDS011;368;48.698;9.116;2022-11-14T14:27:06;3.80;;;1.70;;
769;SDS011;368;48.698;9.116;2022-11-14T14:29:45;3.20;;;2.37;;
769;SDS011;368;48.698;9.116;2022-11-14T14:32:19;1.97;;;1.67;;
769;SDS011;368;48.698;9.116;2022-11-14T14:34:46;3.30;;;2.10;;
769;SDS011;368;48.698;9.116;2022-11-14T14:37:17;2.63;;;2.30;;
769;SDS011;368;48.698;9.116;2022-11-14T14:39:55;2.20;;;1.70;;
769;SDS011;368;48.698;9.116;2022-11-14T14:42:23;3.07;;;2.27;;
769;SDS011;368;48.698;9.116;2022-11-14T14:44:50;2.47;;;2.27;;
769;SDS011;368;48.698;9.116;2022-11-14T14:47:26;2.80;;;2.60;;
769;SDS011;368;48.698;9.116;2022-11-14T14:49:59;5.63;;;4.63;;
769;SDS011;368;48.698;9.116;2022-11-14T14:52:28;7.40;;;4.70;;
769;SDS011;368;48.698;9.116;2022-11-14T14:54:56;2.70;;;2.43;;
769;SDS011;368;48.698;9.116;2022-11-14T14:57:26;16.00;;;8.60;;
769;SDS011;368;48.698;9.116;2022-11-14T14:59:58;18.00;;;8.80;;
769;SDS011;368;48.698;9.116;2022-11-14T15:02:27;14.60;;;7.70;;
769;SDS011;368;48.698;9.116;2022-11-14T15:04:56;4.10;;;2.87;;
769;SDS011;368;48.698;9.116;2022-11-14T15:07:25;3.40;;;2.87;;
769;SDS011;368;48.698;9.116;2022-11-14T15:09:55;2.97;;;2.47;;
769;SDS011;368;48.698;9.116;2022-11-14T15:12:23;5.73;;;2.40;;
769;SDS011;368;48.698;9.116;2022-11-14T15:14:51;2.83;;;2.50;;
769;SDS011;368;48.698;9.116;2022-11-14T15:17:21;5.57;;;3.60;;
769;SDS011;368;48.698;9.116;2022-11-14T15:19:50;4.60;;;3.40;;
769;SDS011;368;48.698;9.116;2022-11-14T15:22:19;3.10;;;2.80;;
769;SDS011;368;48.698;9.116;2022-11-14T15:25:05;3.87;;;2.90;;
769;SDS011;368;48.698;9.116;2022-11-14T15:27:44;4.50;;;2.93;;
769;SDS011;368;48.698;9.116;2022-11-14T15:30:19;3.53;;;3.20;;
769;SDS011;368;48.698;9.116;2022-11-14T15:32:48;3.10;;;2.80;;
769;SDS011;368;48.698;9.116;2022-11-14T15:35:24;4.03;;;3.30;;
769;SDS011;368;48.698;9.116;2022-11-14T15:38:16;4.03;;;2.60;;
769;SDS011;368;48.698;9.116;2022-11-14T15:43:34;3.20;;;2.90;;
769;SDS011;368;48.698;9.116;2022-11-14T15:46:03;5.30;;;3.20;;
769;SDS011;368;48.698;9.116;2022-11-14T15:48:30;2.80;;;2.60;;
769;SDS011;368;48.698;9.116;2022-11-14T15:50:58;5.10;;;3.80;;
769;SDS011;368;48.698;9.116;2022-11-14T15:53:25;5.20;;;4.70;;
769;SDS011;368;48.698;9.116;2022-11-14T15:55:54;17.13;;;10.90;;
769;SDS011;368;48.698;9.116;2022-11-14T15:58:22;9.33;;;6.67;;
769;SDS011;368;48.698;9.116;2022-11-14T16:00:50;15.90;;;9.50;;
769;SDS011;368;48.698;9.116;2022-11-14T16:03:19;9.73;;;6.20;;
769;SDS011;368;48.698;9.116;2022-11-14T16:05:47;8.90;;;6.40;;
769;SDS011;368;48.698;9.116;2022-11-14T16:08:15;5.77;;;5.27;;
769;SDS011;368;48.698;9.116;2022-11-14T16:10:42;4.33;;;3.93;;
769;SDS011;368;48.698;9.116;2022-11-14T16:13:09;3.60;;;3.20;;